Time;durP1;ratioP1;P1;durP2;ratioP2;P2;SDS_P1;SDS_P2;PMS_P1;PMS_P2;Temp;Humidity;BMP_temperature;BMP_pressure;BME280_temperature;BME280_humidity;BME280_pressure;Samples;Min_cycle;Max_cycle;Signal;HPM_P1;HPM_P2
2024/01/05 00:00:13;;;;;;;8.05;3.15;;;;;;;18.57;73.37;99795.22;5042718;28;20802;-37
2024/01/05 00:02:38;;;;;;;5.97;3.20;;;;;;;18.55;73.52;99783.72;5039189;28;20504;-37
2024/01/05 00:05:04;;;;;;;8.57;3.17;;;;;;;18.53;73.65;99786.78;5040685;28;20025;-39
2024/01/05 00:07:30;;;;;;;5.50;2.85;;;;;;;18.53;73.61;99783.25;5042483;28;20090;-39
2024/01/05 00:09:55;;;;;;;5.57;2.65;;;;;;;18.52;74.13;99776.13;5040224;28;20067;-39
2024/01/05 00:12:21;;;;;;;7.47;3.33;;;;;;;18.51;73.77;99778.03;5043657;28;20039;-39
2024/01/05 00:14:46;;;;;;;6.25;2.97;;;;;;;18.50;73.85;99761.88;5039942;28;20033;-39
2024/01/05 00:17:12;;;;;;;6.10;2.83;;;;;;;18.49;74.04;99769.31;5023136;28;20032;-40
2024/01/05 00:19:37;;;;;;;9.88;3.53;;;;;;;18.49;74.10;99760.25;5047698;28;20040;-36
2024/01/05 00:22:03;;;;;;;7.88;3.10;;;;;;;18.47;74.00;99755.09;5041210;28;20033;-36
2024/01/05 00:24:28;;;;;;;6.60;3.13;;;;;;;18.46;74.22;99758.94;5039614;28;20109;-37
2024/01/05 00:26:53;;;;;;;7.82;3.05;;;;;;;18.47;74.46;99755.09;5043004;28;20377;-37
2024/01/05 00:29:19;;;;;;;7.18;2.95;;;;;;;18.45;74.54;99743.59;5055592;28;20036;-37
2024/01/05 00:31:44;;;;;;;5.57;2.85;;;;;;;18.46;74.38;99744.44;5040977;28;20120;-37
2024/01/05 00:34:10;;;;;;;6.20;3.13;;;;;;;18.43;74.49;99737.63;5041201;28;20028;-37
2024/01/05 00:36:35;;;;;;;10.10;3.05;;;;;;;18.43;74.41;99737.63;5044495;28;20355;-37
2024/01/05 00:39:01;;;;;;;6.55;2.92;;;;;;;18.42;74.40;99733.25;5041296;28;20029;-36
2024/01/05 00:41:26;;;;;;;10.00;3.13;;;;;;;18.41;74.72;99720.66;5039954;28;20559;-37
2024/01/05 00:43:51;;;;;;;6.80;2.70;;;;;;;18.41;74.68;99728.88;5039148;28;20040;-37
2024/01/05 00:46:17;;;;;;;5.82;3.05;;;;;;;18.39;74.58;99729.19;5038516;28;20112;-37
2024/01/05 00:48:42;;;;;;;6.88;2.58;;;;;;;18.38;74.68;99718.50;5039633;28;20430;-37
2024/01/05 00:51:07;;;;;;;7.05;2.70;;;;;;;18.38;74.67;99722.06;5040849;28;20044;-37
2024/01/05 00:53:33;;;;;;;7.70;3.13;;;;;;;18.37;74.98;99714.13;5041197;28;20016;-39
2024/01/05 00:55:58;;;;;;;8.50;2.92;;;;;;;18.35;74.96;99708.16;5040254;28;20406;-39
2024/01/05 00:58:23;;;;;;;5.43;2.65;;;;;;;18.34;74.91;99714.75;5039643;28;20466;-40
2024/01/05 01:00:49;;;;;;;7.95;2.78;;;;;;;18.35;74.91;99708.16;5042739;28;20382;-39
2024/01/05 01:03:14;;;;;;;5.55;2.83;;;;;;;18.32;75.01;99698.63;5025083;28;20389;-37
2024/01/05 01:05:40;;;;;;;9.82;2.55;;;;;;;18.33;74.99;99702.16;5042841;28;20493;-37
2024/01/05 01:08:05;;;;;;;7.03;3.20;;;;;;;18.31;75.10;99697.00;5037648;28;20029;-37
2024/01/05 01:10:31;;;;;;;7.30;2.70;;;;;;;18.32;75.30;99700.53;5033764;28;20029;-38
2024/01/05 01:12:56;;;;;;;9.10;2.80;;;;;;;18.30;75.30;99689.06;5039132;28;20517;-36
2024/01/05 01:15:21;;;;;;;5.80;2.50;;;;;;;18.30;75.29;99686.31;5040307;28;20029;-37
2024/01/05 01:17:47;;;;;;;5.45;2.60;;;;;;;18.29;75.15;99688.25;5056185;28;20028;-37
2024/01/05 01:20:12;;;;;;;7.32;2.83;;;;;;;18.28;75.31;99689.34;5040189;28;20029;-37
2024/01/05 01:22:38;;;;;;;8.60;3.08;;;;;;;18.27;75.54;99679.50;5039556;28;20432;-36
2024/01/05 01:25:03;;;;;;;6.95;2.92;;;;;;;18.26;75.55;99675.97;5038921;28;20075;-37
2024/01/05 01:27:29;;;;;;;7.97;2.63;;;;;;;18.26;75.70;99670.47;5048424;28;20029;-37
2024/01/05 01:29:54;;;;;;;7.63;3.30;;;;;;;18.24;75.48;99664.47;5040272;28;20393;-36
2024/01/05 01:32:19;;;;;;;7.10;2.97;;;;;;;18.24;75.63;99663.69;5041226;28;20036;-37
2024/01/05 01:34:45;;;;;;;9.00;2.70;;;;;;;18.24;75.86;99655.44;5038062;28;20555;-38
2024/01/05 01:37:10;;;;;;;9.20;2.90;;;;;;;18.23;75.57;99651.91;5041699;28;20072;-39
2024/01/05 01:39:36;;;;;;;6.90;2.70;;;;;;;18.23;75.51;99660.13;5040323;28;20610;-38
2024/01/05 01:42:02;;;;;;;8.20;2.55;;;;;;;18.24;75.85;99647.22;5037694;28;20292;-36
2024/01/05 01:44:27;;;;;;;7.00;2.72;;;;;;;18.23;75.89;99646.41;5040861;28;20036;-36
2024/01/05 01:46:55;;;;;;;6.25;2.60;;;;;;;18.23;75.94;99643.69;5039778;28;20029;-37
2024/01/05 01:49:21;;;;;;;7.20;2.47;;;;;;;18.23;75.78;99637.34;5040311;28;20112;-37
2024/01/05 01:51:47;;;;;;;8.02;2.90;;;;;;;18.22;76.04;99633.81;5041029;28;20535;-37
2024/01/05 01:54:12;;;;;;;6.57;2.60;;;;;;;18.20;75.77;99622.34;5043977;28;20021;-37
2024/01/05 01:56:38;;;;;;;6.20;2.50;;;;;;;18.21;75.88;99615.75;5041217;28;20052;-37
2024/01/05 01:59:05;;;;;;;6.50;2.75;;;;;;;18.22;75.96;99619.28;5039858;28;20457;-36
2024/01/05 02:01:31;;;;;;;9.13;2.60;;;;;;;18.20;75.99;99608.63;5056786;28;20033;-35
2024/01/05 02:03:56;;;;;;;8.15;2.60;;;;;;;18.21;76.10;99606.69;5041680;28;20044;-36
2024/01/05 02:06:21;;;;;;;5.60;2.53;;;;;;;18.20;76.15;99597.66;5040570;28;20028;-38
2024/01/05 02:08:47;;;;;;;6.03;2.30;;;;;;;18.19;76.07;99598.78;5049099;28;20056;-39
2024/01/05 02:11:13;;;;;;;7.03;2.72;;;;;;;18.19;76.30;99593.28;5023751;28;20548;-38
2024/01/05 02:13:39;;;;;;;6.72;2.50;;;;;;;18.19;76.27;99589.75;5040698;28;20029;-38
2024/01/05 02:16:05;;;;;;;9.02;2.60;;;;;;;18.17;75.99;99581.81;5039940;28;20406;-39
2024/01/05 02:18:30;;;;;;;8.43;2.80;;;;;;;18.19;76.12;99581.53;5040024;28;20572;-39
2024/01/05 02:21:00;;;;;;;6.05;2.67;;;;;;;18.18;76.21;99572.47;5049586;28;20025;-37
2024/01/05 02:23:26;;;;;;;7.63;2.75;;;;;;;18.18;76.12;99566.97;5075107;28;20024;-37
2024/01/05 02:25:53;;;;;;;7.30;2.38;;;;;;;18.17;76.38;99564.56;5044547;28;20028;-37
2024/01/05 02:28:19;;;;;;;6.45;2.40;;;;;;;18.17;76.57;99561.81;5042265;28;20028;-38
2024/01/05 02:30:45;;;;;;;5.40;2.42;;;;;;;18.17;76.32;99556.31;5046289;28;20505;-38
2024/01/05 02:33:10;;;;;;;8.32;2.47;;;;;;;18.16;76.41;99558.28;5049620;28;20477;-38
2024/01/05 02:35:35;;;;;;;7.75;2.33;;;;;;;18.14;76.55;99549.53;5045917;28;20024;-38
2024/01/05 02:38:01;;;;;;;7.85;2.38;;;;;;;18.15;76.46;99539.38;5045247;28;20031;-38
2024/01/05 02:40:26;;;;;;;5.45;2.55;;;;;;;18.15;76.32;99542.09;5043541;28;20029;-38
2024/01/05 02:42:52;;;;;;;4.45;2.08;;;;;;;18.12;76.52;99547.09;5043483;28;20485;-39
2024/01/05 02:45:20;;;;;;;7.20;2.75;;;;;;;18.13;76.37;99536.94;5043457;28;20025;-36
2024/01/05 02:47:49;;;;;;;8.70;2.50;;;;;;;18.13;76.32;99531.44;5044669;28;20036;-36
2024/01/05 02:50:15;;;;;;;5.88;2.17;;;;;;;18.12;76.72;99541.63;5043881;28;20025;-38
2024/01/05 02:52:40;;;;;;;3.75;2.05;;;;;;;18.12;76.58;99529.81;5041487;28;20104;-37
2024/01/05 02:55:06;;;;;;;5.60;2.25;;;;;;;18.11;76.73;99519.97;5042795;28;20501;-36
2024/01/05 02:57:31;;;;;;;7.47;2.47;;;;;;;18.11;76.57;99520.81;5043181;28;20033;-37
2024/01/05 02:59:57;;;;;;;6.60;2.45;;;;;;;18.10;76.84;99508.22;5044996;28;20040;-38
2024/01/05 03:02:22;;;;;;;5.57;2.25;;;;;;;18.11;76.83;99503.53;5043575;28;20580;-38
2024/01/05 03:04:49;;;;;;;5.25;2.20;;;;;;;18.11;76.76;99509.00;5044730;28;20020;-38
2024/01/05 03:07:14;;;;;;;5.05;2.40;;;;;;;18.11;76.54;99503.53;5043079;28;20032;-39
2024/01/05 03:09:40;;;;;;;4.40;2.20;;;;;;;18.10;76.69;99501.94;5043263;28;20429;-37
2024/01/05 03:12:05;;;;;;;6.38;2.55;;;;;;;18.10;76.66;99490.97;5043980;28;20044;-38
2024/01/05 03:14:31;;;;;;;5.75;2.20;;;;;;;18.08;76.86;99491.25;5043240;28;20500;-39
2024/01/05 03:16:56;;;;;;;4.40;2.15;;;;;;;18.09;76.63;99484.66;5046412;28;20040;-39
2024/01/05 03:19:21;;;;;;;5.82;2.60;;;;;;;18.09;76.68;99489.34;5042155;28;20025;-39
2024/01/05 03:21:47;;;;;;;6.45;2.33;;;;;;;18.09;76.71;99490.13;5049048;28;20037;-39
2024/01/05 03:24:12;;;;;;;5.93;2.13;;;;;;;18.07;76.95;99484.13;5043493;28;20025;-36
2024/01/05 03:26:37;;;;;;;5.50;1.98;;;;;;;18.08;77.14;99485.75;5042536;28;20112;-37
2024/01/05 03:29:03;;;;;;;8.82;2.30;;;;;;;18.07;76.99;99484.13;5042152;28;20508;-36
2024/01/05 03:31:28;;;;;;;6.35;2.30;;;;;;;18.07;76.88;99481.41;5042692;28;20036;-36
2024/01/05 03:33:54;;;;;;;7.18;2.35;;;;;;;18.06;76.55;99471.56;5041798;28;20029;-39
2024/01/05 03:36:20;;;;;;;5.38;2.28;;;;;;;18.06;77.07;99476.22;5041710;28;20051;-38
2024/01/05 03:38:45;;;;;;;7.45;2.70;;;;;;;18.06;76.87;99462.53;5047912;28;20113;-36
2024/01/05 03:41:13;;;;;;;5.38;2.00;;;;;;;18.06;77.07;99465.25;5043294;28;20049;-36
2024/01/05 03:43:39;;;;;;;4.88;2.05;;;;;;;18.06;76.97;99457.03;5057519;28;20021;-37
2024/01/05 03:46:04;;;;;;;5.82;2.10;;;;;;;18.04;76.87;99446.38;5042015;28;20071;-37
2024/01/05 03:48:30;;;;;;;5.63;2.00;;;;;;;18.05;76.98;99445.28;5043784;28;20025;-37
2024/01/05 03:50:55;;;;;;;4.43;2.08;;;;;;;18.07;76.73;99442.22;5040815;28;20720;-37
2024/01/05 03:53:20;;;;;;;5.15;2.20;;;;;;;18.06;76.88;99435.94;5043543;28;20033;-37
2024/01/05 03:55:46;;;;;;;7.63;2.40;;;;;;;18.06;76.92;99433.19;5040632;28;20087;-37
2024/01/05 03:58:11;;;;;;;5.40;2.03;;;;;;;18.06;77.07;99429.63;5042945;28;20025;-37
2024/01/05 04:00:36;;;;;;;5.43;1.90;;;;;;;18.03;77.07;99420.09;5041631;28;20059;-37
2024/01/05 04:03:02;;;;;;;5.93;1.85;;;;;;;18.05;76.98;99420.59;5046408;28;20031;-37
2024/01/05 04:05:27;;;;;;;5.55;2.92;;;;;;;18.03;76.97;99411.88;5040576;28;20474;-38
2024/01/05 04:07:53;;;;;;;6.03;2.22;;;;;;;18.02;77.25;99410.25;5042978;28;20477;-36
2024/01/05 04:10:18;;;;;;;3.90;1.90;;;;;;;18.01;77.22;99405.06;5046222;28;20115;-36
2024/01/05 04:12:43;;;;;;;2.42;1.60;;;;;;;18.00;77.41;99407.03;5043150;28;20156;-36
2024/01/05 04:15:09;;;;;;;4.63;2.00;;;;;;;18.00;77.38;99406.19;5038276;28;20025;-37
2024/01/05 04:17:34;;;;;;;5.88;1.70;;;;;;;17.99;77.34;99396.34;5044028;28;20045;-38
2024/01/05 04:20:00;;;;;;;5.80;1.80;;;;;;;17.98;77.40;99391.97;5038482;28;20026;-37
2024/01/05 04:22:30;;;;;;;4.40;1.92;;;;;;;17.96;77.57;99384.91;5042242;28;20024;-39
2024/01/05 04:24:57;;;;;;;7.03;2.00;;;;;;;17.97;77.54;99382.97;5040985;28;20125;-38
2024/01/05 04:27:22;;;;;;;3.88;1.55;;;;;;;17.96;77.33;99371.19;5041964;28;20050;-39
2024/01/05 04:29:48;;;;;;;5.80;2.47;;;;;;;17.97;77.38;99374.75;5043161;28;20100;-39
2024/01/05 04:32:13;;;;;;;5.30;1.92;;;;;;;17.95;77.45;99376.97;5041003;28;20083;-38
2024/01/05 04:34:38;;;;;;;5.47;1.92;;;;;;;17.95;77.46;99364.09;5039450;28;20068;-37
2024/01/05 04:37:04;;;;;;;3.97;1.80;;;;;;;17.95;77.22;99369.56;5041847;28;20108;-37
2024/01/05 04:39:29;;;;;;;4.15;1.70;;;;;;;17.96;77.25;99368.47;5041556;28;20014;-39
2024/01/05 04:41:54;;;;;;;5.20;1.90;;;;;;;17.95;77.31;99375.06;5042779;28;20042;-39
2024/01/05 04:44:20;;;;;;;4.47;2.00;;;;;;;17.94;77.38;99362.47;5040415;28;20120;-38
2024/01/05 04:46:45;;;;;;;4.22;1.88;;;;;;;17.94;77.26;99364.38;5041706;28;20047;-38
2024/01/05 04:49:10;;;;;;;4.57;1.92;;;;;;;17.93;77.29;99360.81;5040150;28;20032;-39
2024/01/05 04:51:36;;;;;;;3.75;1.75;;;;;;;17.93;77.52;99362.75;5041049;28;20521;-40
2024/01/05 04:54:03;;;;;;;5.85;1.98;;;;;;;17.93;77.34;99360.00;5039255;28;20032;-39
2024/01/05 04:56:29;;;;;;;4.53;2.05;;;;;;;17.92;77.34;99359.19;5040933;28;20057;-39
2024/01/05 04:58:54;;;;;;;4.72;1.73;;;;;;;17.91;77.41;99356.78;5044427;28;20171;-36
2024/01/05 05:01:19;;;;;;;3.75;1.60;;;;;;;17.93;77.58;99360.81;5042012;28;20646;-37
2024/01/05 05:03:45;;;;;;;3.28;1.70;;;;;;;17.94;77.74;99350.69;5036681;28;20160;-38
2024/01/05 05:06:11;;;;;;;4.18;1.88;;;;;;;17.99;77.55;99355.22;5042542;28;20103;-40
2024/01/05 05:08:36;;;;;;;3.22;1.58;;;;;;;18.02;77.56;99338.97;5041589;28;20549;-39
2024/01/05 05:11:02;;;;;;;5.07;1.65;;;;;;;18.08;77.43;99345.94;5041089;28;20028;-39
2024/01/05 05:13:28;;;;;;;4.63;1.60;;;;;;;18.15;77.08;99353.72;5073747;28;20064;-37
2024/01/05 05:15:53;;;;;;;4.47;1.77;;;;;;;18.21;76.98;99354.41;5040152;28;20091;-37
2024/01/05 05:18:19;;;;;;;4.70;1.60;;;;;;;18.28;76.68;99357.50;5037557;28;20040;-38
2024/01/05 05:20:44;;;;;;;5.47;1.80;;;;;;;18.35;76.62;99360.59;5042736;28;20108;-36
2024/01/05 05:23:09;;;;;;;2.03;1.30;;;;;;;18.43;76.52;99361.78;5039307;28;20032;-39
2024/01/05 05:25:35;;;;;;;3.47;1.30;;;;;;;18.51;76.67;99360.22;5039416;28;20136;-40
2024/01/05 05:28:00;;;;;;;3.10;1.40;;;;;;;18.59;76.55;99348.47;5057355;28;20025;-39
2024/01/05 05:30:25;;;;;;;3.20;1.60;;;;;;;18.69;76.21;99355.59;5038938;28;20021;-39
2024/01/05 05:32:51;;;;;;;3.50;1.48;;;;;;;18.80;76.29;99348.69;5039962;28;20048;-40
2024/01/05 05:35:16;;;;;;;3.78;1.20;;;;;;;18.90;76.17;99353.09;5040580;28;20028;-39
2024/01/05 05:37:42;;;;;;;2.25;1.27;;;;;;;18.99;75.88;99351.19;5045556;28;20021;-39
2024/01/05 05:40:09;;;;;;;5.45;1.50;;;;;;;19.09;75.62;99350.06;5040125;28;20021;-40
2024/01/05 05:42:34;;;;;;;3.70;1.40;;;;;;;19.16;75.47;99347.66;5039987;28;20266;-39
2024/01/05 05:44:59;;;;;;;4.60;1.40;;;;;;;19.20;75.21;99345.09;5042427;28;20147;-38
2024/01/05 05:47:25;;;;;;;3.90;1.40;;;;;;;19.23;74.62;99350.75;5042789;28;20021;-37
2024/01/05 05:49:50;;;;;;;3.45;1.48;;;;;;;19.24;74.69;99346.09;5040678;28;20063;-37
2024/01/05 05:52:16;;;;;;;1.55;1.30;;;;;;;19.24;74.15;99346.09;5040877;28;20116;-37
2024/01/05 05:54:41;;;;;;;2.75;1.42;;;;;;;19.23;74.32;99355.44;5041573;28;20158;-40
2024/01/05 05:57:09;;;;;;;2.92;1.40;;;;;;;19.20;74.37;99348.66;5042280;28;20244;-38
2024/01/05 05:59:34;;;;;;;1.73;1.10;;;;;;;19.18;74.32;99342.69;5045054;28;20052;-40
2024/01/05 06:01:59;;;;;;;1.95;1.30;;;;;;;19.17;74.06;99343.00;5043268;28;20163;-37
2024/01/05 06:04:25;;;;;;;2.55;1.20;;;;;;;19.17;74.24;99345.75;5045619;28;20060;-38
2024/01/05 06:06:50;;;;;;;3.80;1.20;;;;;;;19.16;74.41;99341.38;5047733;28;20072;-37
2024/01/05 06:09:16;;;;;;;1.67;1.08;;;;;;;19.15;74.20;99340.56;5044137;28;20013;-37
2024/01/05 06:11:41;;;;;;;1.40;1.05;;;;;;;19.14;74.11;99349.13;5048382;28;20033;-38
2024/01/05 06:14:07;;;;;;;1.92;1.00;;;;;;;19.11;74.38;99347.03;5044973;28;20028;-37
2024/01/05 06:16:32;;;;;;;1.63;1.00;;;;;;;19.10;73.93;99348.94;5039395;28;20030;-38
2024/01/05 06:18:58;;;;;;;3.90;1.20;;;;;;;19.07;74.21;99342.16;5044778;28;20079;-37
2024/01/05 06:21:23;;;;;;;1.77;0.93;;;;;;;19.06;74.18;99348.78;5043535;28;20078;-38
2024/01/05 06:23:49;;;;;;;1.52;1.10;;;;;;;19.04;74.14;99351.06;5046098;28;20504;-37
2024/01/05 06:26:14;;;;;;;1.50;0.95;;;;;;;19.02;73.79;99350.56;5053341;28;20024;-37
2024/01/05 06:28:39;;;;;;;1.55;1.10;;;;;;;19.00;74.04;99344.56;5043278;28;20056;-39
2024/01/05 06:31:05;;;;;;;1.75;1.02;;;;;;;18.99;73.84;99344.91;5041056;28;20420;-37
2024/01/05 06:33:31;;;;;;;1.23;1.08;;;;;;;18.97;74.12;99344.41;5044179;28;20575;-39
2024/01/05 06:35:56;;;;;;;1.65;0.98;;;;;;;18.95;74.19;99341.97;5045207;28;20116;-39
2024/01/05 06:38:21;;;;;;;2.28;1.05;;;;;;;18.94;74.12;99354.09;5046757;28;20079;-39
2024/01/05 06:40:47;;;;;;;1.65;1.05;;;;;;;18.92;74.18;99343.44;5042173;28;20032;-40
2024/01/05 06:43:12;;;;;;;1.67;0.90;;;;;;;18.91;74.21;99341.81;5048506;28;20028;-40
2024/01/05 06:45:38;;;;;;;1.30;1.00;;;;;;;18.90;74.13;99334.66;5043600;28;20028;-39
2024/01/05 06:48:04;;;;;;;1.50;0.82;;;;;;;18.89;74.02;99332.25;5051153;28;20278;-37
2024/01/05 06:50:30;;;;;;;1.00;0.90;;;;;;;18.88;74.08;99333.38;5044135;28;20358;-39
2024/01/05 06:52:55;;;;;;;1.75;1.10;;;;;;;18.86;73.94;99341.09;5044713;28;20063;-39
2024/01/05 06:55:20;;;;;;;1.67;0.98;;;;;;;18.84;74.11;99335.16;5043632;28;20430;-39
2024/01/05 06:57:47;;;;;;;1.20;0.90;;;;;;;18.82;74.18;99327.25;5041672;28;20159;-39
2024/01/05 07:00:13;;;;;;;1.45;0.98;;;;;;;18.81;73.84;99325.63;5042798;28;20031;-39
2024/01/05 07:02:40;;;;;;;1.08;0.85;;;;;;;18.80;74.00;99323.16;5043864;28;20037;-39
2024/01/05 07:05:06;;;;;;;0.80;0.80;;;;;;;18.78;73.84;99315.25;5042735;28;20424;-39
2024/01/05 07:07:31;;;;;;;1.13;0.90;;;;;;;18.77;73.71;99316.38;5042700;28;20036;-39
2024/01/05 07:09:56;;;;;;;0.63;0.55;;;;;;;18.74;74.00;99311.56;5041971;28;20039;-39
2024/01/05 07:12:27;;;;;;;0.75;0.75;;;;;;;18.73;73.84;99315.41;5042289;28;20351;-39
2024/01/05 07:14:52;;;;;;;0.70;0.70;;;;;;;18.72;73.78;99319.28;5040474;28;20040;-39
2024/01/05 07:17:17;;;;;;;2.17;0.80;;;;;;;18.68;73.88;99308.13;5040549;28;20033;-38
2024/01/05 07:19:43;;;;;;;1.13;0.80;;;;;;;18.67;73.90;99312.00;5042129;28;20064;-39
2024/01/05 07:22:08;;;;;;;0.82;0.82;;;;;;;18.67;74.23;99319.44;5042727;28;20146;-38
2024/01/05 07:24:36;;;;;;;0.90;0.75;;;;;;;18.66;73.92;99321.34;5042559;28;20028;-38
2024/01/05 07:27:01;;;;;;;1.00;0.80;;;;;;;18.66;73.83;99317.81;5042092;28;20040;-37
2024/01/05 07:29:27;;;;;;;1.65;0.95;;;;;;;18.64;74.01;99307.16;5040970;28;20223;-37
2024/01/05 07:31:52;;;;;;;0.75;0.75;;;;;;;18.65;74.03;99313.44;5047574;28;20111;-37
2024/01/05 07:34:18;;;;;;;0.80;0.80;;;;;;;18.65;73.75;99313.44;5039048;28;20394;-36
2024/01/05 07:36:43;;;;;;;1.05;0.85;;;;;;;18.66;73.76;99304.09;5042224;28;20390;-37
2024/01/05 07:39:12;;;;;;;0.93;0.75;;;;;;;18.66;73.83;99310.38;5042160;28;20036;-37
2024/01/05 07:41:40;;;;;;;1.00;0.90;;;;;;;18.67;73.90;99306.50;5041506;28;20469;-38
2024/01/05 07:44:06;;;;;;;1.75;0.70;;;;;;;18.67;73.69;99313.94;5041999;28;20513;-38
2024/01/05 07:46:32;;;;;;;0.52;0.52;;;;;;;18.67;73.63;99305.72;5043274;28;20067;-38
2024/01/05 07:48:57;;;;;;;1.58;0.98;;;;;;;18.65;73.66;99297.81;5049647;28;20028;-38
2024/01/05 07:51:23;;;;;;;0.90;0.80;;;;;;;18.65;73.58;99296.97;5040896;28;20112;-38
2024/01/05 07:53:49;;;;;;;2.22;0.80;;;;;;;18.64;73.62;99298.09;5041811;28;20032;-38
2024/01/05 07:56:17;;;;;;;0.80;0.80;;;;;;;18.62;73.81;99292.94;5039250;28;20025;-36
2024/01/05 07:58:42;;;;;;;1.08;0.70;;;;;;;18.61;73.79;99299.56;5041256;28;20124;-38
2024/01/05 08:01:14;;;;;;;1.30;0.95;;;;;;;18.61;73.99;99296.81;5042603;28;20115;-38
2024/01/05 08:03:39;;;;;;;0.95;0.70;;;;;;;18.60;73.93;99297.94;5042371;28;20065;-37
2024/01/05 08:06:05;;;;;;;1.10;0.90;;;;;;;18.60;73.68;99293.28;5042778;28;20052;-37
2024/01/05 08:08:30;;;;;;;0.75;0.73;;;;;;;18.58;73.97;99284.53;5041606;28;20035;-37
2024/01/05 08:10:56;;;;;;;2.78;1.05;;;;;;;18.57;74.00;99288.41;5043347;28;20057;-37
2024/01/05 08:13:25;;;;;;;1.15;0.88;;;;;;;18.57;74.06;99284.88;5041598;28;20315;-37
2024/01/05 08:15:51;;;;;;;1.27;0.73;;;;;;;18.56;73.65;99283.25;5042042;28;20064;-37
2024/01/05 08:18:17;;;;;;;1.35;0.77;;;;;;;18.54;73.95;99288.22;5037551;28;20068;-37
2024/01/05 08:20:42;;;;;;;1.35;0.73;;;;;;;18.54;73.86;99274.50;5040442;28;20349;-37
2024/01/05 08:23:07;;;;;;;1.15;0.70;;;;;;;18.52;74.11;99277.56;5041466;28;20142;-36
2024/01/05 08:25:33;;;;;;;0.88;0.88;;;;;;;18.52;73.80;99271.28;5047130;28;20086;-36
2024/01/05 08:27:58;;;;;;;0.95;0.77;;;;;;;18.51;73.88;99266.94;5037948;28;20032;-37
2024/01/05 08:30:24;;;;;;;1.48;0.88;;;;;;;18.52;74.27;99265.81;5041667;28;20025;-39
2024/01/05 08:32:54;;;;;;;0.80;0.68;;;;;;;18.52;74.00;99274.84;5043030;28;20028;-37
2024/01/05 08:35:20;;;;;;;1.58;0.70;;;;;;;18.52;74.09;99260.31;5042315;28;20235;-36
2024/01/05 08:37:45;;;;;;;0.70;0.70;;;;;;;18.51;74.06;99255.97;5038209;28;20026;-37
2024/01/05 08:40:12;;;;;;;1.17;0.85;;;;;;;18.51;73.93;99259.50;5041654;28;20017;-37
2024/01/05 08:42:37;;;;;;;0.85;0.70;;;;;;;18.51;73.83;99253.22;5052773;28;20098;-37
2024/01/05 08:45:03;;;;;;;1.23;0.70;;;;;;;18.51;73.97;99254.00;5044160;28;20405;-37
2024/01/05 08:47:29;;;;;;;0.70;0.70;;;;;;;18.52;73.91;99252.88;5041690;28;20300;-37
2024/01/05 08:49:54;;;;;;;1.95;0.82;;;;;;;18.53;73.94;99257.25;5073671;28;20079;-37
2024/01/05 08:52:19;;;;;;;2.53;0.70;;;;;;;18.55;74.07;99252.25;5042058;28;20056;-38
2024/01/05 08:54:45;;;;;;;0.82;0.82;;;;;;;18.56;73.64;99256.59;5041423;28;20539;-37
2024/01/05 08:57:11;;;;;;;1.45;0.70;;;;;;;18.57;73.68;99251.94;5044795;28;20036;-37
2024/01/05 08:59:38;;;;;;;0.73;0.73;;;;;;;18.57;73.77;99246.44;5041405;28;20124;-37
2024/01/05 09:02:05;;;;;;;1.73;0.90;;;;;;;18.58;73.57;99245.31;5041430;28;20132;-37
2024/01/05 09:04:31;;;;;;;2.45;0.77;;;;;;;18.56;73.76;99237.41;5042198;28;20036;-37
2024/01/05 09:06:58;;;;;;;1.55;0.88;;;;;;;18.56;73.89;99234.66;5041278;28;20017;-37
2024/01/05 09:09:23;;;;;;;1.30;0.77;;;;;;;18.55;73.50;99238.53;5040714;28;20090;-37
2024/01/05 09:11:49;;;;;;;1.35;0.70;;;;;;;18.54;73.46;99227.88;5047315;28;20127;-37
2024/01/05 09:14:14;;;;;;;3.03;1.00;;;;;;;18.53;73.54;99229.81;5042619;28;20028;-37
2024/01/05 09:16:40;;;;;;;0.88;0.80;;;;;;;18.52;73.34;99238.38;5041736;28;20031;-37
2024/01/05 09:19:05;;;;;;;1.25;0.85;;;;;;;18.50;73.61;99230.44;5040135;28;20028;-39
2024/01/05 09:21:30;;;;;;;1.33;0.82;;;;;;;18.47;73.41;99236.59;5039634;28;20159;-39
2024/01/05 09:23:56;;;;;;;0.73;0.73;;;;;;;18.46;73.31;99247.88;5042093;28;20162;-39
2024/01/05 09:26:22;;;;;;;1.52;0.85;;;;;;;18.44;73.61;99248.19;5043566;28;20437;-39
2024/01/05 09:28:47;;;;;;;0.80;0.80;;;;;;;18.43;73.22;99252.88;5047824;28;20029;-38
2024/01/05 09:31:13;;;;;;;0.98;0.88;;;;;;;18.42;73.07;99259.47;5042887;28;20021;-39
2024/01/05 09:33:39;;;;;;;1.77;0.93;;;;;;;18.42;73.15;99258.69;5045953;28;20465;-38
2024/01/05 09:36:04;;;;;;;3.10;1.20;;;;;;;18.40;73.22;99253.50;5045691;28;20108;-38
2024/01/05 09:38:30;;;;;;;1.55;1.20;;;;;;;18.39;73.16;99260.13;5048781;28;20024;-39
2024/01/05 09:40:55;;;;;;;0.90;0.90;;;;;;;18.39;73.11;99265.63;5039351;28;20026;-39
2024/01/05 09:43:24;;;;;;;83.60;3.65;;;;;;;18.38;73.40;99254.94;5043901;28;20035;-38
2024/01/05 09:45:51;;;;;;;7.32;1.08;;;;;;;18.39;73.60;99259.31;5045127;28;20448;-41
2024/01/05 09:48:20;;;;;;;10.23;1.40;;;;;;;18.43;74.16;99260.31;5042745;28;20032;-41
2024/01/05 09:50:53;;;;;;;8.90;1.30;;;;;;;18.49;73.96;99255.47;5041920;28;20471;-41
2024/01/05 09:53:19;;;;;;;4.40;1.00;;;;;;;18.52;74.36;99258.38;5044881;28;20020;-40
2024/01/05 09:55:48;;;;;;;3.78;1.02;;;;;;;18.56;74.62;99253.84;5042410;28;20063;-41
2024/01/05 09:58:17;;;;;;;3.13;1.00;;;;;;;18.61;74.13;99247.41;5057914;28;20581;-41
2024/01/05 10:00:50;;;;;;;1.75;1.08;;;;;;;18.64;74.28;99249.53;5042811;28;20460;-41
2024/01/05 10:03:26;;;;;;;1.88;1.17;;;;;;;18.70;74.17;99251.00;5040869;28;20033;-42
2024/01/05 10:05:53;;;;;;;6.40;1.10;;;;;;;18.76;74.50;99246.16;5038970;28;20280;-41
2024/01/05 10:08:22;;;;;;;3.70;0.93;;;;;;;18.82;74.21;99244.91;5042764;28;20041;-40
2024/01/05 10:10:59;;;;;;;2.03;1.00;;;;;;;18.89;73.98;99239.72;5042572;28;20351;-38
2024/01/05 10:13:25;;;;;;;3.45;0.90;;;;;;;18.96;73.97;99247.50;5041957;28;20040;-42
2024/01/05 10:16:00;;;;;;;1.88;0.90;;;;;;;19.00;74.05;99233.97;5041172;28;20025;-40
2024/01/05 10:18:28;;;;;;;2.67;1.00;;;;;;;19.07;74.00;99235.06;5039638;28;20107;-40
2024/01/05 10:20:55;;;;;;;0.80;0.80;;;;;;;19.11;73.86;99221.50;5035823;28;20083;-40
2024/01/05 10:23:20;;;;;;;1.10;0.90;;;;;;;19.15;73.51;99211.47;5041890;28;20025;-40
2024/01/05 10:25:47;;;;;;;1.13;1.00;;;;;;;19.18;73.67;99221.03;5044417;28;20671;-40
2024/01/05 10:28:38;;;;;;;4.40;0.93;;;;;;;19.21;73.21;99210.22;5041356;28;20359;-43
2024/01/05 10:31:12;;;;;;;1.63;1.00;;;;;;;19.22;73.13;99205.53;5039337;28;20819;-45
2024/01/05 10:33:54;;;;;;;2.85;1.00;;;;;;;19.23;73.27;99196.94;5040688;28;20024;-45
2024/01/05 10:36:25;;;;;;;2.97;1.00;;;;;;;19.25;73.36;99204.84;5041562;28;20048;-44
2024/01/05 10:38:51;;;;;;;1.27;0.82;;;;;;;19.27;73.31;99202.59;5043797;28;20032;-42
2024/01/05 10:41:18;;;;;;;0.93;0.80;;;;;;;19.29;73.19;99194.03;5040810;28;20036;-42
2024/01/05 10:43:44;;;;;;;1.08;0.85;;;;;;;19.31;72.94;99200.00;5042706;28;20116;-43
2024/01/05 10:46:11;;;;;;;1.90;0.90;;;;;;;19.33;73.10;99197.75;5040213;28;20121;-43
2024/01/05 10:48:39;;;;;;;1.70;0.95;;;;;;;19.38;72.95;99200.34;5047091;28;20398;-36
2024/01/05 10:51:06;;;;;;;0.98;0.82;;;;;;;19.43;73.07;99204.84;5042885;28;20392;-36
2024/01/05 10:53:32;;;;;;;3.20;1.10;;;;;;;19.37;73.22;99206.94;5041553;28;20099;-35
2024/01/05 10:55:58;;;;;;;1.08;0.80;;;;;;;19.28;73.20;99206.97;5039657;28;20024;-35
2024/01/05 10:58:24;;;;;;;1.42;0.90;;;;;;;19.20;73.57;99208.59;5039900;28;20048;-35
2024/01/05 11:00:51;;;;;;;1.13;1.02;;;;;;;19.16;74.02;99207.63;5042172;28;20704;-36
2024/01/05 11:03:18;;;;;;;3.28;1.00;;;;;;;19.12;74.50;99212.16;5041188;28;20419;-35
2024/01/05 11:05:45;;;;;;;0.80;0.80;;;;;;;19.09;74.47;99212.78;5042076;28;20075;-38
2024/01/05 11:08:18;;;;;;;1.27;0.82;;;;;;;19.05;74.60;99222.81;5043498;28;20029;-37
2024/01/05 11:10:53;;;;;;;1.45;0.90;;;;;;;19.03;74.41;99220.38;5040991;28;20414;-37
2024/01/05 11:13:40;;;;;;;1.83;0.90;;;;;;;19.02;74.68;99223.47;5042210;28;20552;-38
2024/01/05 11:16:38;;;;;;;2.33;0.95;;;;;;;19.00;74.35;99225.72;5040662;28;20062;-38
2024/01/05 11:19:37;;;;;;;1.92;0.93;;;;;;;18.99;74.32;99237.81;5032019;28;20098;-37
2024/01/05 11:22:10;;;;;;;1.67;1.00;;;;;;;19.00;74.41;99247.69;5039519;28;20032;-38
2024/01/05 11:24:36;;;;;;;1.48;0.95;;;;;;;19.00;74.73;99258.66;5041516;28;20462;-38
2024/01/05 11:27:34;;;;;;;1.58;1.10;;;;;;;19.00;74.46;99269.66;5042032;28;20112;-37
2024/01/05 11:30:01;;;;;;;1.20;1.00;;;;;;;19.03;74.67;99277.22;5052717;28;20032;-37